sensor_id;sensor_type;location;lat;lon;timestamp;P1;durP1;ratioP1;P2;durP2;ratioP2
47778;SDS011;33538;48.432;11.350;2023-04-03T00:00:04;5.63;;;2.20;;
47778;SDS011;33538;48.432;11.350;2023-04-03T00:02:31;3.63;;;2.05;;
47778;SDS011;33538;48.432;11.350;2023-04-03T00:04:59;4.60;;;2.60;;
47778;SDS011;33538;48.432;11.350;2023-04-03T00:07:25;3.85;;;2.25;;
47778;SDS011;33538;48.432;11.350;2023-04-03T00:09:52;5.28;;;2.50;;
47778;SDS011;33538;48.432;11.350;2023-04-03T00:12:20;2.45;;;1.90;;
47778;SDS011;33538;48.432;11.350;2023-04-03T00:14:47;3.35;;;2.00;;
47778;SDS011;33538;48.432;11.350;2023-04-03T00:17:14;3.15;;;2.10;;
47778;SDS011;33538;48.432;11.350;2023-04-03T00:19:40;2.38;;;1.83;;
47778;SDS011;33538;48.432;11.350;2023-04-03T00:22:07;3.83;;;1.95;;
47778;SDS011;33538;48.432;11.350;2023-04-03T00:24:34;3.22;;;1.92;;
47778;SDS011;33538;48.432;11.350;2023-04-03T00:27:01;2.50;;;1.88;;
47778;SDS011;33538;48.432;11.350;2023-04-03T00:29:29;3.22;;;2.13;;
47778;SDS011;33538;48.432;11.350;2023-04-03T00:31:55;3.60;;;2.10;;
47778;SDS011;33538;48.432;11.350;2023-04-03T00:34:22;3.97;;;2.05;;
47778;SDS011;33538;48.432;11.350;2023-04-03T00:36:49;2.75;;;2.00;;
47778;SDS011;33538;48.432;11.350;2023-04-03T00:39:16;2.70;;;2.10;;
47778;SDS011;33538;48.432;11.350;2023-04-03T00:41:42;3.00;;;2.05;;
47778;SDS011;33538;48.432;11.350;2023-04-03T00:47:08;3.03;;;2.20;;
47778;SDS011;33538;48.432;11.350;2023-04-03T00:49:36;2.17;;;1.70;;
47778;SDS011;33538;48.432;11.350;2023-04-03T00:52:04;4.10;;;2.00;;
47778;SDS011;33538;48.432;11.350;2023-04-03T00:54:33;5.47;;;2.28;;
47778;SDS011;33538;48.432;11.350;2023-04-03T00:57:02;4.57;;;2.45;;
47778;SDS011;33538;48.432;11.350;2023-04-03T00:59:32;5.13;;;2.50;;
47778;SDS011;33538;48.432;11.350;2023-04-03T01:02:02;2.15;;;1.80;;
47778;SDS011;33538;48.432;11.350;2023-04-03T01:04:31;3.45;;;2.13;;
47778;SDS011;33538;48.432;11.350;2023-04-03T01:07:00;3.72;;;2.25;;
47778;SDS011;33538;48.432;11.350;2023-04-03T01:09:30;2.47;;;1.98;;
47778;SDS011;33538;48.432;11.350;2023-04-03T01:12:12;2.08;;;1.75;;
47778;SDS011;33538;48.432;11.350;2023-04-03T01:14:39;2.45;;;1.75;;
47778;SDS011;33538;48.432;11.350;2023-04-03T01:17:20;2.90;;;2.00;;
47778;SDS011;33538;48.432;11.350;2023-04-03T01:20:01;3.35;;;2.03;;
47778;SDS011;33538;48.432;11.350;2023-04-03T01:22:43;2.30;;;1.83;;
47778;SDS011;33538;48.432;11.350;2023-04-03T01:25:17;5.32;;;2.55;;
47778;SDS011;33538;48.432;11.350;2023-04-03T01:27:44;4.43;;;1.77;;
47778;SDS011;33538;48.432;11.350;2023-04-03T01:30:11;3.03;;;1.88;;
47778;SDS011;33538;48.432;11.350;2023-04-03T01:32:44;2.22;;;1.77;;
47778;SDS011;33538;48.432;11.350;2023-04-03T01:35:11;2.17;;;1.60;;
47778;SDS011;33538;48.432;11.350;2023-04-03T01:37:37;2.28;;;1.50;;
47778;SDS011;33538;48.432;11.350;2023-04-03T01:40:05;6.25;;;3.28;;
47778;SDS011;33538;48.432;11.350;2023-04-03T01:42:32;2.70;;;1.95;;
47778;SDS011;33538;48.432;11.350;2023-04-03T01:44:59;3.67;;;2.20;;
47778;SDS011;33538;48.432;11.350;2023-04-03T01:47:26;3.33;;;1.95;;
47778;SDS011;33538;48.432;11.350;2023-04-03T01:49:54;4.78;;;2.00;;
47778;SDS011;33538;48.432;11.350;2023-04-03T01:52:21;3.13;;;1.90;;
47778;SDS011;33538;48.432;11.350;2023-04-03T01:54:48;6.45;;;2.15;;
47778;SDS011;33538;48.432;11.350;2023-04-03T01:57:14;2.63;;;1.70;;
47778;SDS011;33538;48.432;11.350;2023-04-03T01:59:41;3.30;;;1.80;;
47778;SDS011;33538;48.432;11.350;2023-04-03T02:02:08;3.70;;;2.40;;
47778;SDS011;33538;48.432;11.350;2023-04-03T02:04:35;3.80;;;1.60;;
47778;SDS011;33538;48.432;11.350;2023-04-03T02:07:03;2.90;;;1.67;;
47778;SDS011;33538;48.432;11.350;2023-04-03T02:09:30;3.83;;;2.05;;
47778;SDS011;33538;48.432;11.350;2023-04-03T02:11:57;5.32;;;1.77;;
47778;SDS011;33538;48.432;11.350;2023-04-03T02:14:23;2.80;;;1.60;;
47778;SDS011;33538;48.432;11.350;2023-04-03T02:16:50;3.72;;;1.90;;
47778;SDS011;33538;48.432;11.350;2023-04-03T02:19:17;5.10;;;1.90;;
47778;SDS011;33538;48.432;11.350;2023-04-03T02:21:44;4.10;;;2.22;;
47778;SDS011;33538;48.432;11.350;2023-04-03T02:24:12;3.17;;;1.95;;
47778;SDS011;33538;48.432;11.350;2023-04-03T02:26:38;2.70;;;1.85;;
47778;SDS011;33538;48.432;11.350;2023-04-03T02:29:05;2.45;;;1.60;;
47778;SDS011;33538;48.432;11.350;2023-04-03T02:31:32;2.92;;;1.80;;
47778;SDS011;33538;48.432;11.350;2023-04-03T02:33:59;2.80;;;1.98;;
47778;SDS011;33538;48.432;11.350;2023-04-03T02:36:26;5.57;;;2.47;;
47778;SDS011;33538;48.432;11.350;2023-04-03T02:38:52;3.85;;;2.20;;
47778;SDS011;33538;48.432;11.350;2023-04-03T02:41:21;2.60;;;2.08;;
47778;SDS011;33538;48.432;11.350;2023-04-03T02:43:47;2.65;;;2.10;;
47778;SDS011;33538;48.432;11.350;2023-04-03T02:46:14;2.55;;;1.95;;
47778;SDS011;33538;48.432;11.350;2023-04-03T02:48:41;3.53;;;2.15;;
47778;SDS011;33538;48.432;11.350;2023-04-03T02:51:08;3.90;;;2.08;;
47778;SDS011;33538;48.432;11.350;2023-04-03T02:53:34;5.18;;;2.38;;
47778;SDS011;33538;48.432;11.350;2023-04-03T02:56:01;2.00;;;1.58;;
47778;SDS011;33538;48.432;11.350;2023-04-03T02:58:29;4.78;;;2.13;;
47778;SDS011;33538;48.432;11.350;2023-04-03T03:00:56;4.13;;;2.08;;
47778;SDS011;33538;48.432;11.350;2023-04-03T03:03:23;4.97;;;2.58;;
47778;SDS011;33538;48.432;11.350;2023-04-03T03:05:50;5.25;;;2.33;;
47778;SDS011;33538;48.432;11.350;2023-04-03T03:08:27;4.07;;;1.85;;
47778;SDS011;33538;48.432;11.350;2023-04-03T03:10:54;3.28;;;2.00;;
47778;SDS011;33538;48.432;11.350;2023-04-03T03:13:20;4.78;;;2.13;;
47778;SDS011;33538;48.432;11.350;2023-04-03T03:15:49;2.15;;;1.63;;
47778;SDS011;33538;48.432;11.350;2023-04-03T03:18:15;2.63;;;2.13;;
47778;SDS011;33538;48.432;11.350;2023-04-03T03:20:42;4.10;;;2.10;;
47778;SDS011;33538;48.432;11.350;2023-04-03T03:23:09;4.80;;;2.10;;
47778;SDS011;33538;48.432;11.350;2023-04-03T03:25:37;4.20;;;2.50;;
47778;SDS011;33538;48.432;11.350;2023-04-03T03:28:05;5.35;;;2.17;;
47778;SDS011;33538;48.432;11.350;2023-04-03T03:30:32;3.08;;;2.10;;
47778;SDS011;33538;48.432;11.350;2023-04-03T03:33:00;3.78;;;2.42;;
47778;SDS011;33538;48.432;11.350;2023-04-03T03:35:27;5.13;;;2.50;;
47778;SDS011;33538;48.432;11.350;2023-04-03T03:37:54;4.05;;;2.00;;
47778;SDS011;33538;48.432;11.350;2023-04-03T03:40:21;3.30;;;1.80;;
47778;SDS011;33538;48.432;11.350;2023-04-03T03:42:48;4.88;;;2.63;;
47778;SDS011;33538;48.432;11.350;2023-04-03T03:45:14;4.57;;;2.38;;
47778;SDS011;33538;48.432;11.350;2023-04-03T03:47:41;7.10;;;2.47;;
47778;SDS011;33538;48.432;11.350;2023-04-03T03:50:10;3.35;;;2.22;;
47778;SDS011;33538;48.432;11.350;2023-04-03T03:52:36;4.18;;;2.30;;
47778;SDS011;33538;48.432;11.350;2023-04-03T03:55:03;2.83;;;2.17;;
47778;SDS011;33538;48.432;11.350;2023-04-03T03:57:31;4.50;;;1.98;;
47778;SDS011;33538;48.432;11.350;2023-04-03T03:59:57;3.55;;;2.30;;
47778;SDS011;33538;48.432;11.350;2023-04-03T04:02:24;5.25;;;2.58;;
47778;SDS011;33538;48.432;11.350;2023-04-03T04:04:51;5.88;;;2.63;;
47778;SDS011;33538;48.432;11.350;2023-04-03T04:07:19;3.08;;;2.03;;
47778;SDS011;33538;48.432;11.350;2023-04-03T04:09:46;2.85;;;2.10;;
47778;SDS011;33538;48.432;11.350;2023-04-03T04:12:13;3.05;;;2.30;;
47778;SDS011;33538;48.432;11.350;2023-04-03T04:14:40;5.57;;;2.67;;
47778;SDS011;33538;48.432;11.350;2023-04-03T04:17:07;7.10;;;3.10;;
47778;SDS011;33538;48.432;11.350;2023-04-03T04:19:33;4.65;;;2.50;;
47778;SDS011;33538;48.432;11.350;2023-04-03T04:22:00;4.10;;;2.42;;
47778;SDS011;33538;48.432;11.350;2023-04-03T04:24:29;6.03;;;2.30;;
47778;SDS011;33538;48.432;11.350;2023-04-03T04:26:56;3.58;;;2.30;;
47778;SDS011;33538;48.432;11.350;2023-04-03T04:29:23;4.25;;;2.58;;
47778;SDS011;33538;48.432;11.350;2023-04-03T04:31:50;3.35;;;2.40;;
47778;SDS011;33538;48.432;11.350;2023-04-03T04:34:16;4.60;;;2.72;;
47778;SDS011;33538;48.432;11.350;2023-04-03T04:36:43;5.65;;;2.13;;
47778;SDS011;33538;48.432;11.350;2023-04-03T04:39:10;4.25;;;2.08;;
47778;SDS011;33538;48.432;11.350;2023-04-03T04:41:38;2.13;;;1.73;;
47778;SDS011;33538;48.432;11.350;2023-04-03T04:44:05;3.15;;;2.15;;
47778;SDS011;33538;48.432;11.350;2023-04-03T04:46:32;2.60;;;1.83;;
47778;SDS011;33538;48.432;11.350;2023-04-03T04:48:58;3.75;;;1.98;;
47778;SDS011;33538;48.432;11.350;2023-04-03T04:51:25;5.97;;;2.05;;
47778;SDS011;33538;48.432;11.350;2023-04-03T04:53:56;4.40;;;2.78;;
47778;SDS011;33538;48.432;11.350;2023-04-03T04:56:22;3.10;;;2.17;;
47778;SDS011;33538;48.432;11.350;2023-04-03T04:58:50;4.05;;;2.53;;
47778;SDS011;33538;48.432;11.350;2023-04-03T05:01:17;4.75;;;2.58;;
47778;SDS011;33538;48.432;11.350;2023-04-03T05:03:44;5.43;;;2.83;;
47778;SDS011;33538;48.432;11.350;2023-04-03T05:06:11;2.72;;;1.80;;
47778;SDS011;33538;48.432;11.350;2023-04-03T05:08:37;3.15;;;2.08;;
47778;SDS011;33538;48.432;11.350;2023-04-03T05:11:04;3.88;;;2.33;;
47778;SDS011;33538;48.432;11.350;2023-04-03T05:13:31;5.32;;;2.88;;
47778;SDS011;33538;48.432;11.350;2023-04-03T05:15:59;4.18;;;2.35;;
47778;SDS011;33538;48.432;11.350;2023-04-03T05:18:26;2.75;;;2.20;;
47778;SDS011;33538;48.432;11.350;2023-04-03T05:20:53;5.15;;;2.42;;
47778;SDS011;33538;48.432;11.350;2023-04-03T05:23:19;3.97;;;2.15;;
47778;SDS011;33538;48.432;11.350;2023-04-03T05:25:46;7.55;;;2.33;;
47778;SDS011;33538;48.432;11.350;2023-04-03T05:28:13;5.72;;;2.90;;
47778;SDS011;33538;48.432;11.350;2023-04-03T05:30:40;8.68;;;2.38;;
47778;SDS011;33538;48.432;11.350;2023-04-03T05:33:08;4.40;;;2.42;;
47778;SDS011;33538;48.432;11.350;2023-04-03T05:35:35;3.65;;;2.20;;
47778;SDS011;33538;48.432;11.350;2023-04-03T05:38:03;4.22;;;2.35;;
47778;SDS011;33538;48.432;11.350;2023-04-03T05:40:30;5.60;;;2.83;;
47778;SDS011;33538;48.432;11.350;2023-04-03T05:42:57;4.63;;;2.42;;
47778;SDS011;33538;48.432;11.350;2023-04-03T05:45:23;3.70;;;2.38;;
47778;SDS011;33538;48.432;11.350;2023-04-03T05:47:50;2.80;;;2.22;;
47778;SDS011;33538;48.432;11.350;2023-04-03T05:50:18;5.28;;;2.50;;
47778;SDS011;33538;48.432;11.350;2023-04-03T05:52:45;3.70;;;2.40;;
47778;SDS011;33538;48.432;11.350;2023-04-03T05:55:15;4.57;;;2.38;;
47778;SDS011;33538;48.432;11.350;2023-04-03T05:57:42;3.72;;;2.70;;
47778;SDS011;33538;48.432;11.350;2023-04-03T06:00:11;4.60;;;2.78;;
47778;SDS011;33538;48.432;11.350;2023-04-03T06:02:40;4.13;;;2.63;;
47778;SDS011;33538;48.432;11.350;2023-04-03T06:05:07;5.60;;;2.78;;
47778;SDS011;33538;48.432;11.350;2023-04-03T06:07:36;7.15;;;2.70;;
47778;SDS011;33538;48.432;11.350;2023-04-03T06:10:03;5.70;;;3.05;;
47778;SDS011;33538;48.432;11.350;2023-04-03T06:12:31;5.20;;;2.75;;
47778;SDS011;33538;48.432;11.350;2023-04-03T06:14:57;5.82;;;3.13;;
47778;SDS011;33538;48.432;11.350;2023-04-03T06:17:24;6.30;;;2.90;;
47778;SDS011;33538;48.432;11.350;2023-04-03T06:19:51;4.68;;;3.13;;
47778;SDS011;33538;48.432;11.350;2023-04-03T06:22:18;6.47;;;3.05;;
47778;SDS011;33538;48.432;11.350;2023-04-03T06:24:46;4.53;;;2.70;;
47778;SDS011;33538;48.432;11.350;2023-04-03T06:27:12;6.50;;;2.78;;
47778;SDS011;33538;48.432;11.350;2023-04-03T06:29:39;5.25;;;2.97;;
47778;SDS011;33538;48.432;11.350;2023-04-03T06:32:06;4.97;;;3.17;;
47778;SDS011;33538;48.432;11.350;2023-04-03T06:34:33;5.63;;;2.88;;
47778;SDS011;33538;48.432;11.350;2023-04-03T06:36:59;5.10;;;2.65;;
47778;SDS011;33538;48.432;11.350;2023-04-03T06:39:26;6.15;;;2.72;;
47778;SDS011;33538;48.432;11.350;2023-04-03T06:41:54;5.28;;;2.72;;
47778;SDS011;33538;48.432;11.350;2023-04-03T06:44:21;5.38;;;2.90;;
47778;SDS011;33538;48.432;11.350;2023-04-03T06:46:48;4.13;;;2.65;;
47778;SDS011;33538;48.432;11.350;2023-04-03T06:49:15;4.28;;;2.63;;
47778;SDS011;33538;48.432;11.350;2023-04-03T06:51:41;3.83;;;2.70;;
47778;SDS011;33538;48.432;11.350;2023-04-03T06:54:08;6.43;;;3.38;;
47778;SDS011;33538;48.432;11.350;2023-04-03T06:56:35;6.18;;;3.05;;
47778;SDS011;33538;48.432;11.350;2023-04-03T06:59:03;6.35;;;2.85;;
47778;SDS011;33538;48.432;11.350;2023-04-03T07:01:30;5.03;;;2.72;;
47778;SDS011;33538;48.432;11.350;2023-04-03T07:03:57;4.03;;;2.30;;
47778;SDS011;33538;48.432;11.350;2023-04-03T07:06:24;5.88;;;2.80;;
47778;SDS011;33538;48.432;11.350;2023-04-03T07:08:51;5.18;;;2.80;;
47778;SDS011;33538;48.432;11.350;2023-04-03T07:11:18;5.80;;;2.90;;
47778;SDS011;33538;48.432;11.350;2023-04-03T07:13:45;4.57;;;3.00;;
47778;SDS011;33538;48.432;11.350;2023-04-03T07:16:13;4.38;;;2.42;;
47778;SDS011;33538;48.432;11.350;2023-04-03T07:18:40;6.20;;;3.40;;
47778;SDS011;33538;48.432;11.350;2023-04-03T07:21:06;5.10;;;3.38;;
47778;SDS011;33538;48.432;11.350;2023-04-03T07:23:33;5.30;;;2.70;;
47778;SDS011;33538;48.432;11.350;2023-04-03T07:26:00;5.07;;;3.00;;
47778;SDS011;33538;48.432;11.350;2023-04-03T07:28:27;5.18;;;2.50;;
47778;SDS011;33538;48.432;11.350;2023-04-03T07:30:59;4.85;;;2.80;;
47778;SDS011;33538;48.432;11.350;2023-04-03T07:35:56;4.85;;;2.70;;
47778;SDS011;33538;48.432;11.350;2023-04-03T07:38:23;3.72;;;2.72;;
47778;SDS011;33538;48.432;11.350;2023-04-03T07:40:50;3.33;;;2.20;;
47778;SDS011;33538;48.432;11.350;2023-04-03T07:43:18;4.57;;;2.70;;
47778;SDS011;33538;48.432;11.350;2023-04-03T07:45:45;3.75;;;2.50;;
47778;SDS011;33538;48.432;11.350;2023-04-03T07:48:13;5.22;;;2.75;;
47778;SDS011;33538;48.432;11.350;2023-04-03T07:50:41;5.35;;;2.70;;
47778;SDS011;33538;48.432;11.350;2023-04-03T07:53:08;6.40;;;3.88;;
47778;SDS011;33538;48.432;11.350;2023-04-03T07:55:35;4.07;;;2.65;;
47778;SDS011;33538;48.432;11.350;2023-04-03T07:58:02;5.75;;;2.60;;
47778;SDS011;33538;48.432;11.350;2023-04-03T08:00:29;4.65;;;2.85;;
47778;SDS011;33538;48.432;11.350;2023-04-03T08:02:56;5.88;;;3.15;;
47778;SDS011;33538;48.432;11.350;2023-04-03T08:05:23;5.70;;;2.83;;
47778;SDS011;33538;48.432;11.350;2023-04-03T08:07:51;4.65;;;2.58;;
47778;SDS011;33538;48.432;11.350;2023-04-03T08:10:17;5.00;;;2.78;;
47778;SDS011;33538;48.432;11.350;2023-04-03T08:12:45;4.65;;;2.75;;
47778;SDS011;33538;48.432;11.350;2023-04-03T08:15:12;7.70;;;2.80;;
47778;SDS011;33538;48.432;11.350;2023-04-03T08:17:39;5.57;;;2.95;;
47778;SDS011;33538;48.432;11.350;2023-04-03T08:20:07;4.07;;;3.20;;
47778;SDS011;33538;48.432;11.350;2023-04-03T08:22:35;5.18;;;3.22;;
47778;SDS011;33538;48.432;11.350;2023-04-03T08:25:04;8.90;;;3.60;;
47778;SDS011;33538;48.432;11.350;2023-04-03T08:27:31;9.52;;;3.63;;
47778;SDS011;33538;48.432;11.350;2023-04-03T08:30:01;3.95;;;3.03;;
47778;SDS011;33538;48.432;11.350;2023-04-03T08:32:28;5.10;;;3.28;;
47778;SDS011;33538;48.432;11.350;2023-04-03T08:34:55;7.88;;;3.28;;
47778;SDS011;33538;48.432;11.350;2023-04-03T08:37:22;5.28;;;3.65;;
47778;SDS011;33538;48.432;11.350;2023-04-03T08:39:48;5.20;;;3.38;;
47778;SDS011;33538;48.432;11.350;2023-04-03T08:42:18;4.43;;;2.80;;
47778;SDS011;33538;48.432;11.350;2023-04-03T08:44:55;6.03;;;3.33;;
47778;SDS011;33538;48.432;11.350;2023-04-03T08:47:28;5.43;;;3.05;;
47778;SDS011;33538;48.432;11.350;2023-04-03T08:50:04;5.68;;;3.15;;
47778;SDS011;33538;48.432;11.350;2023-04-03T08:52:36;5.53;;;2.67;;
47778;SDS011;33538;48.432;11.350;2023-04-03T08:55:06;5.55;;;3.40;;
47778;SDS011;33538;48.432;11.350;2023-04-03T08:57:43;7.18;;;3.17;;
47778;SDS011;33538;48.432;11.350;2023-04-03T09:00:15;5.00;;;2.67;;
47778;SDS011;33538;48.432;11.350;2023-04-03T09:02:44;7.82;;;3.00;;
47778;SDS011;33538;48.432;11.350;2023-04-03T09:05:14;3.92;;;2.70;;
47778;SDS011;33538;48.432;11.350;2023-04-03T09:07:43;7.47;;;3.13;;
47778;SDS011;33538;48.432;11.350;2023-04-03T09:10:15;5.03;;;2.53;;
47778;SDS011;33538;48.432;11.350;2023-04-03T09:12:52;7.10;;;3.05;;
47778;SDS011;33538;48.432;11.350;2023-04-03T09:15:25;5.03;;;2.90;;
47778;SDS011;33538;48.432;11.350;2023-04-03T09:18:05;4.60;;;2.42;;
47778;SDS011;33538;48.432;11.350;2023-04-03T09:20:41;5.38;;;3.10;;
47778;SDS011;33538;48.432;11.350;2023-04-03T09:23:17;4.68;;;2.53;;
47778;SDS011;33538;48.432;11.350;2023-04-03T09:25:48;4.82;;;3.13;;
47778;SDS011;33538;48.432;11.350;2023-04-03T09:28:20;3.30;;;2.33;;
47778;SDS011;33538;48.432;11.350;2023-04-03T09:30:47;6.32;;;3.20;;
47778;SDS011;33538;48.432;11.350;2023-04-03T09:33:14;5.38;;;2.72;;
47778;SDS011;33538;48.432;11.350;2023-04-03T09:35:41;6.18;;;3.47;;
47778;SDS011;33538;48.432;11.350;2023-04-03T09:38:15;4.03;;;2.60;;
47778;SDS011;33538;48.432;11.350;2023-04-03T09:40:47;6.03;;;3.40;;
47778;SDS011;33538;48.432;11.350;2023-04-03T09:43:19;4.10;;;2.72;;
47778;SDS011;33538;48.432;11.350;2023-04-03T09:45:50;3.30;;;2.63;;
47778;SDS011;33538;48.432;11.350;2023-04-03T09:48:18;6.05;;;2.75;;
47778;SDS011;33538;48.432;11.350;2023-04-03T09:50:54;4.97;;;3.35;;
47778;SDS011;33538;48.432;11.350;2023-04-03T09:53:26;3.97;;;2.70;;
47778;SDS011;33538;48.432;11.350;2023-04-03T09:55:55;6.50;;;3.20;;
47778;SDS011;33538;48.432;11.350;2023-04-03T09:58:25;4.00;;;2.70;;
47778;SDS011;33538;48.432;11.350;2023-04-03T10:01:04;7.45;;;2.90;;
47778;SDS011;33538;48.432;11.350;2023-04-03T10:03:32;3.90;;;2.78;;
47778;SDS011;33538;48.432;11.350;2023-04-03T10:06:00;3.83;;;3.20;;
47778;SDS011;33538;48.432;11.350;2023-04-03T10:08:29;5.72;;;2.78;;
47778;SDS011;33538;48.432;11.350;2023-04-03T10:11:13;4.22;;;2.75;;
47778;SDS011;33538;48.432;11.350;2023-04-03T10:16:27;3.30;;;2.38;;
47778;SDS011;33538;48.432;11.350;2023-04-03T10:19:02;6.15;;;2.83;;
47778;SDS011;33538;48.432;11.350;2023-04-03T10:21:43;5.63;;;2.78;;
47778;SDS011;33538;48.432;11.350;2023-04-03T10:24:15;4.55;;;2.55;;
47778;SDS011;33538;48.432;11.350;2023-04-03T10:26:50;3.20;;;2.13;;
47778;SDS011;33538;48.432;11.350;2023-04-03T10:29:34;2.70;;;2.20;;
47778;SDS011;33538;48.432;11.350;2023-04-03T10:32:15;4.90;;;2.38;;
47778;SDS011;33538;48.432;11.350;2023-04-03T10:34:53;3.65;;;2.15;;
47778;SDS011;33538;48.432;11.350;2023-04-03T10:37:33;3.10;;;2.35;;
47778;SDS011;33538;48.432;11.350;2023-04-03T10:40:20;4.22;;;2.65;;
47778;SDS011;33538;48.432;11.350;2023-04-03T10:42:55;6.80;;;2.22;;
47778;SDS011;33538;48.432;11.350;2023-04-03T10:45:30;3.33;;;2.10;;
47778;SDS011;33538;48.432;11.350;2023-04-03T10:48:02;3.38;;;2.47;;
47778;SDS011;33538;48.432;11.350;2023-04-03T10:50:38;3.65;;;2.33;;
47778;SDS011;33538;48.432;11.350;2023-04-03T10:55:43;2.83;;;1.73;;
47778;SDS011;33538;48.432;11.350;2023-04-03T10:58:20;4.03;;;2.00;;
47778;SDS011;33538;48.432;11.350;2023-04-03T11:00:53;2.05;;;1.63;;
47778;SDS011;33538;48.432;11.350;2023-04-03T11:03:26;6.35;;;2.38;;
47778;SDS011;33538;48.432;11.350;2023-04-03T11:05:56;5.72;;;2.83;;
47778;SDS011;33538;48.432;11.350;2023-04-03T11:08:28;3.78;;;2.20;;
47778;SDS011;33538;48.432;11.350;2023-04-03T11:10:59;3.30;;;2.63;;
47778;SDS011;33538;48.432;11.350;2023-04-03T11:13:32;3.88;;;2.72;;
47778;SDS011;33538;48.432;11.350;2023-04-03T11:16:02;2.53;;;1.60;;
47778;SDS011;33538;48.432;11.350;2023-04-03T11:18:32;4.38;;;2.55;;
47778;SDS011;33538;48.432;11.350;2023-04-03T11:21:04;7.13;;;2.58;;
47778;SDS011;33538;48.432;11.350;2023-04-03T11:26:15;2.80;;;2.13;;
47778;SDS011;33538;48.432;11.350;2023-04-03T11:28:43;4.07;;;2.38;;
47778;SDS011;33538;48.432;11.350;2023-04-03T11:31:19;3.15;;;2.10;;
47778;SDS011;33538;48.432;11.350;2023-04-03T11:33:56;3.15;;;2.20;;
47778;SDS011;33538;48.432;11.350;2023-04-03T11:36:30;4.35;;;2.45;;
47778;SDS011;33538;48.432;11.350;2023-04-03T11:39:07;4.78;;;2.40;;
47778;SDS011;33538;48.432;11.350;2023-04-03T11:41:44;2.85;;;2.17;;
47778;SDS011;33538;48.432;11.350;2023-04-03T11:44:25;5.18;;;2.60;;
47778;SDS011;33538;48.432;11.350;2023-04-03T11:46:58;2.65;;;1.83;;
47778;SDS011;33538;48.432;11.350;2023-04-03T11:55:42;2.70;;;2.10;;
47778;SDS011;33538;48.432;11.350;2023-04-03T11:58:22;3.50;;;1.95;;
47778;SDS011;33538;48.432;11.350;2023-04-03T12:00:56;2.92;;;1.90;;
47778;SDS011;33538;48.432;11.350;2023-04-03T12:03:33;2.53;;;2.08;;
47778;SDS011;33538;48.432;11.350;2023-04-03T12:09:22;3.40;;;1.92;;
47778;SDS011;33538;48.432;11.350;2023-04-03T12:11:50;3.22;;;1.80;;
47778;SDS011;33538;48.432;11.350;2023-04-03T12:14:18;5.32;;;1.90;;
47778;SDS011;33538;48.432;11.350;2023-04-03T12:16:47;4.82;;;1.85;;
47778;SDS011;33538;48.432;11.350;2023-04-03T12:19:32;3.28;;;2.00;;
47778;SDS011;33538;48.432;11.350;2023-04-03T12:22:11;2.83;;;1.80;;
47778;SDS011;33538;48.432;11.350;2023-04-03T12:24:40;4.43;;;1.80;;
47778;SDS011;33538;48.432;11.350;2023-04-03T12:30:05;2.42;;;1.50;;
47778;SDS011;33538;48.432;11.350;2023-04-03T12:32:51;4.30;;;1.55;;
47778;SDS011;33538;48.432;11.350;2023-04-03T12:35:43;2.47;;;1.40;;
47778;SDS011;33538;48.432;11.350;2023-04-03T12:38:23;1.70;;;1.48;;
47778;SDS011;33538;48.432;11.350;2023-04-03T12:41:10;2.20;;;1.10;;
47778;SDS011;33538;48.432;11.350;2023-04-03T12:43:47;0.93;;;0.90;;
47778;SDS011;33538;48.432;11.350;2023-04-03T12:46:28;2.55;;;1.33;;
47778;SDS011;33538;48.432;11.350;2023-04-03T12:49:01;2.72;;;1.35;;
47778;SDS011;33538;48.432;11.350;2023-04-03T12:51:40;2.38;;;1.17;;
47778;SDS011;33538;48.432;11.350;2023-04-03T12:54:12;1.88;;;1.00;;
47778;SDS011;33538;48.432;11.350;2023-04-03T12:56:41;1.60;;;1.10;;
47778;SDS011;33538;48.432;11.350;2023-04-03T12:59:13;3.47;;;1.08;;
47778;SDS011;33538;48.432;11.350;2023-04-03T13:01:41;2.75;;;1.30;;
47778;SDS011;33538;48.432;11.350;2023-04-03T13:04:10;1.98;;;1.20;;
47778;SDS011;33538;48.432;11.350;2023-04-03T13:06:38;3.28;;;1.50;;
47778;SDS011;33538;48.432;11.350;2023-04-03T13:09:17;7.22;;;1.35;;
47778;SDS011;33538;48.432;11.350;2023-04-03T13:11:46;4.60;;;1.92;;
47778;SDS011;33538;48.432;11.350;2023-04-03T13:14:15;2.28;;;1.10;;
47778;SDS011;33538;48.432;11.350;2023-04-03T13:16:52;4.80;;;1.30;;
47778;SDS011;33538;48.432;11.350;2023-04-03T13:19:19;2.00;;;1.40;;
47778;SDS011;33538;48.432;11.350;2023-04-03T13:21:47;1.50;;;1.00;;
47778;SDS011;33538;48.432;11.350;2023-04-03T13:24:15;2.63;;;1.25;;
47778;SDS011;33538;48.432;11.350;2023-04-03T13:26:42;13.45;;;1.30;;
47778;SDS011;33538;48.432;11.350;2023-04-03T13:29:17;3.03;;;1.48;;
47778;SDS011;33538;48.432;11.350;2023-04-03T13:31:56;1.55;;;1.10;;
47778;SDS011;33538;48.432;11.350;2023-04-03T13:34:24;6.05;;;2.13;;
47778;SDS011;33538;48.432;11.350;2023-04-03T13:36:57;4.00;;;1.10;;
47778;SDS011;33538;48.432;11.350;2023-04-03T13:39:26;1.95;;;1.10;;
47778;SDS011;33538;48.432;11.350;2023-04-03T13:41:55;1.65;;;0.93;;
47778;SDS011;33538;48.432;11.350;2023-04-03T13:44:26;1.88;;;0.90;;
47778;SDS011;33538;48.432;11.350;2023-04-03T13:46:59;2.40;;;1.20;;
47778;SDS011;33538;48.432;11.350;2023-04-03T13:49:29;2.50;;;1.17;;
47778;SDS011;33538;48.432;11.350;2023-04-03T13:52:00;1.90;;;1.10;;
47778;SDS011;33538;48.432;11.350;2023-04-03T13:54:34;1.67;;;1.13;;
47778;SDS011;33538;48.432;11.350;2023-04-03T13:57:03;1.95;;;1.13;;
47778;SDS011;33538;48.432;11.350;2023-04-03T13:59:38;2.17;;;1.33;;
47778;SDS011;33538;48.432;11.350;2023-04-03T14:02:12;1.42;;;1.00;;
47778;SDS011;33538;48.432;11.350;2023-04-03T14:04:50;1.70;;;0.85;;
47778;SDS011;33538;48.432;11.350;2023-04-03T14:07:20;2.13;;;1.13;;
47778;SDS011;33538;48.432;11.350;2023-04-03T14:09:48;2.25;;;1.27;;
47778;SDS011;33538;48.432;11.350;2023-04-03T14:12:15;1.55;;;1.10;;
47778;SDS011;33538;48.432;11.350;2023-04-03T14:14:56;2.30;;;1.30;;
47778;SDS011;33538;48.432;11.350;2023-04-03T14:17:24;2.60;;;1.00;;
47778;SDS011;33538;48.432;11.350;2023-04-03T14:19:52;5.82;;;1.65;;
47778;SDS011;33538;48.432;11.350;2023-04-03T14:22:22;2.92;;;0.90;;
47778;SDS011;33538;48.432;11.350;2023-04-03T14:24:50;3.17;;;1.20;;
47778;SDS011;33538;48.432;11.350;2023-04-03T14:27:18;2.42;;;1.42;;
47778;SDS011;33538;48.432;11.350;2023-04-03T14:29:48;1.80;;;1.00;;
47778;SDS011;33538;48.432;11.350;2023-04-03T14:32:17;2.05;;;1.02;;
47778;SDS011;33538;48.432;11.350;2023-04-03T14:34:46;2.03;;;1.10;;
47778;SDS011;33538;48.432;11.350;2023-04-03T14:37:14;3.75;;;1.85;;
47778;SDS011;33538;48.432;11.350;2023-04-03T14:39:44;1.88;;;1.10;;
47778;SDS011;33538;48.432;11.350;2023-04-03T14:42:12;1.40;;;0.80;;
47778;SDS011;33538;48.432;11.350;2023-04-03T14:44:41;1.30;;;0.90;;
47778;SDS011;33538;48.432;11.350;2023-04-03T14:47:09;3.00;;;1.20;;
47778;SDS011;33538;48.432;11.350;2023-04-03T14:49:53;1.75;;;1.10;;
47778;SDS011;33538;48.432;11.350;2023-04-03T14:52:21;2.25;;;0.90;;
47778;SDS011;33538;48.432;11.350;2023-04-03T14:54:51;2.83;;;0.90;;
47778;SDS011;33538;48.432;11.350;2023-04-03T14:57:18;2.05;;;1.10;;
47778;SDS011;33538;48.432;11.350;2023-04-03T14:59:46;2.30;;;1.13;;
47778;SDS011;33538;48.432;11.350;2023-04-03T15:04:59;1.02;;;0.80;;
47778;SDS011;33538;48.432;11.350;2023-04-03T15:07:27;2.42;;;1.15;;
47778;SDS011;33538;48.432;11.350;2023-04-03T15:09:56;1.98;;;1.40;;
47778;SDS011;33538;48.432;11.350;2023-04-03T15:12:24;3.88;;;1.13;;
47778;SDS011;33538;48.432;11.350;2023-04-03T15:14:51;2.17;;;1.27;;